Time;durP1;ratioP1;P1;durP2;ratioP2;P2;SDS_P1;SDS_P2;PMS_P1;PMS_P2;Temp;Humidity;BMP_temperature;BMP_pressure;BME280_temperature;BME280_humidity;BME280_pressure;Samples;Min_cycle;Max_cycle;Signal;HPM_P1;HPM_P2
2023/07/13 00:01:16;;;;;;;2.25;2.15;;;20.30;99.90;;;20.80;77.63;101202.25;5054015;28;20398;-74
2023/07/13 00:03:44;;;;;;;2.47;2.38;;;20.40;99.90;;;20.79;77.60;101209.44;5050224;28;20090;-75
2023/07/13 00:06:13;;;;;;;31.20;4.57;;;20.40;99.90;;;20.86;77.64;101223.53;5053942;28;20048;-74
2023/07/13 00:08:42;;;;;;;2.85;2.75;;;20.40;99.90;;;20.89;77.48;101221.59;5054034;28;20441;-74
2023/07/13 00:11:10;;;;;;;2.40;2.30;;;20.40;99.90;;;20.96;77.45;101223.09;5053800;28;20064;-74
2023/07/13 00:13:40;;;;;;;2.58;2.47;;;20.50;99.90;;;20.93;77.68;101219.63;5053734;28;20500;-74
2023/07/13 00:16:13;;;;;;;2.60;2.50;;;20.50;99.90;;;20.91;77.62;101222.38;5053755;28;20449;-74
2023/07/13 00:18:42;;;;;;;2.40;2.30;;;20.50;99.90;;;20.88;77.88;101217.16;5053941;28;20449;-74
2023/07/13 00:21:10;;;;;;;2.40;2.30;;;20.50;99.90;;;20.95;77.71;101228.50;5052420;28;20053;-74
2023/07/13 00:23:41;;;;;;;2.72;2.63;;;20.50;99.90;;;20.96;77.56;101227.59;5049886;28;20443;-74
2023/07/13 00:26:12;;;;;;;2.53;2.42;;;20.60;99.90;;;20.79;77.72;101208.59;5053590;28;20048;-75
2023/07/13 00:28:41;;;;;;;2.33;2.22;;;20.50;99.90;;;20.90;77.75;101228.72;5053423;28;20059;-73
2023/07/13 00:31:15;;;;;;;2.72;2.63;;;20.50;99.90;;;20.88;77.63;101224.34;5053612;28;20387;-75
2023/07/13 00:33:44;;;;;;;2.35;2.25;;;20.50;99.90;;;20.88;77.54;101225.22;5053252;28;20068;-74
2023/07/13 00:36:12;;;;;;;2.70;2.60;;;20.50;99.90;;;20.93;77.64;101233.97;5052320;28;20102;-74
2023/07/13 00:38:42;;;;;;;2.38;2.28;;;20.50;99.90;;;20.95;77.54;101229.41;5049630;28;20083;-75
2023/07/13 00:41:11;;;;;;;2.58;2.47;;;20.50;99.90;;;20.89;77.66;101229.66;5049780;28;20409;-76
2023/07/13 00:43:41;;;;;;;9.88;5.47;;;20.50;99.90;;;20.84;78.19;101228.97;5053176;28;20048;-74
2023/07/13 00:46:21;;;;;;;3.47;3.17;;;20.40;99.90;;;20.78;78.67;101229.22;5053449;28;20136;-76
2023/07/13 00:48:51;;;;;;;2.55;2.45;;;20.40;99.90;;;20.46;78.39;101140.94;5053500;28;20051;-73
2023/07/13 00:51:32;;;;;;;2.67;2.58;;;20.40;99.90;;;20.80;78.42;101231.84;5051604;28;20064;-74
2023/07/13 00:54:06;;;;;;;2.40;2.30;;;20.30;99.90;;;20.79;78.11;101232.78;5055938;28;20148;-74
2023/07/13 00:56:36;;;;;;;3.10;2.90;;;20.40;99.90;;;20.75;77.94;101236.53;5057115;28;20384;-76
2023/07/13 00:59:07;;;;;;;2.45;2.35;;;20.30;99.90;;;20.71;77.71;101230.41;5056834;28;20049;-74
2023/07/13 01:01:39;;;;;;;2.67;2.58;;;20.30;99.90;;;20.65;77.42;101236.88;5053523;28;20037;-75
2023/07/13 01:04:08;;;;;;;8.20;3.72;;;20.30;99.90;;;20.63;77.18;101227.16;5053450;28;20052;-74
2023/07/13 01:06:37;;;;;;;2.40;2.30;;;20.20;99.90;;;20.63;77.10;101237.91;5053197;28;20052;-74
2023/07/13 01:09:07;;;;;;;2.40;2.30;;;20.20;99.90;;;20.58;77.22;101229.13;5053053;28;20147;-75
2023/07/13 01:11:36;;;;;;;5.00;3.35;;;20.20;99.90;;;20.51;77.08;101233.00;5051643;28;20051;-74
2023/07/13 01:14:04;;;;;;;2.53;2.42;;;20.10;99.90;;;20.52;77.21;101238.31;5053042;28;20049;-73
2023/07/13 01:16:38;;;;;;;2.40;2.30;;;20.10;99.90;;;20.52;77.21;101232.06;5052652;28;20118;-74
2023/07/13 01:19:16;;;;;;;2.55;2.45;;;20.10;99.90;;;20.50;76.97;101233.94;5049987;28;20124;-74
2023/07/13 01:21:52;;;;;;;2.40;2.30;;;20.10;99.90;;;20.48;77.21;101231.31;5052682;28;20193;-74
2023/07/13 01:24:20;;;;;;;2.50;2.40;;;20.10;99.90;;;19.79;77.14;101121.19;5049054;28;20313;-73
2023/07/13 01:26:50;;;;;;;3.03;2.92;;;20.00;99.90;;;20.39;76.91;101247.81;5053244;28;20122;-74
2023/07/13 01:29:18;;;;;;;2.33;2.22;;;20.00;99.90;;;20.34;76.76;101240.84;5052779;28;20095;-74
2023/07/13 01:31:47;;;;;;;2.60;2.50;;;19.90;99.90;;;20.30;76.48;101252.66;5052821;28;20049;-74
2023/07/13 01:34:15;;;;;;;2.60;2.50;;;19.90;99.90;;;20.24;76.27;101240.34;5052779;28;20041;-74
2023/07/13 01:36:45;;;;;;;2.35;2.25;;;19.90;99.90;;;20.21;75.98;101248.50;5052680;28;20045;-74
2023/07/13 01:39:14;;;;;;;2.50;2.40;;;19.80;99.90;;;20.16;75.87;101246.88;5052686;28;20052;-75
2023/07/13 01:41:43;;;;;;;2.60;2.50;;;19.80;99.90;;;20.13;75.69;101245.19;5052410;28;20433;-75
2023/07/13 01:44:11;;;;;;;2.33;2.22;;;19.70;99.90;;;20.10;75.32;101247.13;5052818;28;20123;-75
2023/07/13 01:46:39;;;;;;;2.58;2.47;;;19.70;99.90;;;20.02;75.30;101244.72;5056850;28;20391;-74
2023/07/13 01:49:08;;;;;;;2.63;2.53;;;19.70;99.90;;;19.99;74.96;101242.16;5051793;28;20080;-74
2023/07/13 01:51:36;;;;;;;2.25;2.15;;;19.60;99.90;;;19.98;74.83;101245.75;5056347;28;20473;-74
2023/07/13 01:54:06;;;;;;;2.30;2.20;;;19.60;99.90;;;19.98;74.63;101245.75;5056662;28;20099;-74
2023/07/13 01:56:35;;;;;;;2.33;2.22;;;19.60;99.90;;;19.94;74.45;101245.94;5055417;28;20045;-74
2023/07/13 01:59:03;;;;;;;2.40;2.30;;;19.60;99.90;;;19.92;74.56;101254.03;5053946;28;20557;-74
2023/07/13 02:01:32;;;;;;;2.50;2.40;;;19.50;99.90;;;19.92;74.56;101251.34;5056286;28;20091;-74
2023/07/13 02:04:00;;;;;;;2.67;2.58;;;19.50;99.90;;;19.93;74.49;101262.97;5055266;28;20048;-75
2023/07/13 02:06:31;;;;;;;2.40;2.30;;;19.50;99.90;;;19.88;74.55;101251.53;5055264;28;20156;-74
2023/07/13 02:09:00;;;;;;;2.20;2.10;;;19.50;99.90;;;19.87;74.92;101264.09;5056291;28;20049;-75
2023/07/13 02:11:32;;;;;;;2.30;2.20;;;19.50;99.90;;;19.85;75.00;101251.63;5052738;28;20048;-75
2023/07/13 02:14:01;;;;;;;2.25;2.15;;;19.50;99.90;;;19.86;75.43;101256.94;5055056;28;20057;-75
2023/07/13 02:16:31;;;;;;;2.30;2.20;;;19.50;99.90;;;19.87;75.76;101257.81;5056031;28;20410;-75
2023/07/13 02:19:00;;;;;;;2.43;2.33;;;19.50;99.90;;;19.85;75.93;101255.22;5054948;28;20478;-75
2023/07/13 02:21:29;;;;;;;2.45;2.35;;;19.40;99.90;;;19.21;76.64;101146.56;5056073;28;20060;-75
2023/07/13 02:23:57;;;;;;;2.80;2.70;;;19.50;99.90;;;19.87;76.85;101253.34;5056103;28;20049;-75
2023/07/13 02:26:26;;;;;;;2.47;2.38;;;19.50;99.90;;;19.89;77.40;101251.47;5056087;28;20068;-75
2023/07/13 02:28:56;;;;;;;2.33;2.22;;;19.50;99.90;;;19.91;77.73;101249.63;5062785;28;20127;-75
2023/07/13 02:31:24;;;;;;;2.40;2.30;;;19.50;99.90;;;19.91;78.41;101251.41;5052180;28;20041;-74
2023/07/13 02:33:54;;;;;;;2.22;2.13;;;19.60;99.90;;;19.94;78.85;101246.81;5054420;28;20045;-75
2023/07/13 02:36:23;;;;;;;2.60;2.50;;;19.60;99.90;;;19.89;79.52;101251.47;5055840;28;20045;-76
2023/07/13 02:38:51;;;;;;;2.50;2.40;;;19.50;99.90;;;19.92;80.08;101248.66;5055859;28;20098;-75
2023/07/13 02:41:20;;;;;;;2.40;2.30;;;19.50;99.90;;;19.96;80.18;101250.31;5055612;28;20405;-75
2023/07/13 02:43:48;;;;;;;2.47;2.38;;;19.60;99.90;;;19.94;80.53;101249.50;5055458;28;20048;-75
2023/07/13 02:46:19;;;;;;;2.83;2.72;;;19.60;99.90;;;19.99;80.82;101249.34;5055795;28;20049;-75
2023/07/13 02:48:47;;;;;;;2.40;2.30;;;19.60;99.90;;;19.95;81.05;101256.63;5062795;28;20076;-75
2023/07/13 02:51:17;;;;;;;2.47;2.38;;;19.60;99.90;;;19.94;81.44;101256.69;5051903;28;20072;-75
2023/07/13 02:53:45;;;;;;;2.65;2.55;;;19.50;99.90;;;19.91;81.56;101254.09;5055596;28;20421;-75
2023/07/13 02:56:14;;;;;;;2.30;2.20;;;19.50;99.90;;;19.94;81.84;101262.06;5055396;28;20052;-75
2023/07/13 02:58:45;;;;;;;;;;;19.60;99.90;;;19.93;82.23;101252.25;5055751;28;20405;-76
2023/07/13 03:01:18;;;;;;;2.38;2.28;;;19.60;99.90;;;19.88;82.52;101248.84;5054214;28;19921;-74
2023/07/13 03:03:49;;;;;;;2.30;2.20;;;19.60;99.90;;;19.95;82.81;101256.63;5054227;28;20056;-74
2023/07/13 03:06:21;;;;;;;2.30;2.20;;;19.50;99.90;;;19.94;83.00;101257.53;5070860;28;20053;-74
2023/07/13 03:08:53;;;;;;;2.40;2.30;;;19.50;99.90;;;19.97;83.25;101267.31;5048708;28;20053;-74
2023/07/13 03:11:22;;;;;;;2.42;2.33;;;19.50;99.90;;;19.95;83.50;101275.44;5070713;28;20075;-74
2023/07/13 03:14:11;;;;;;;2.58;2.47;;;19.50;99.90;;;19.91;84.18;101263.03;5051800;28;20088;-75
2023/07/13 03:16:40;;;;;;;2.30;2.20;;;19.60;99.90;;;19.95;84.45;101275.44;5053930;28;20106;-74
2023/07/13 03:19:10;;;;;;;2.35;2.25;;;19.50;99.90;;;19.99;84.76;101273.50;5052176;28;20092;-75
2023/07/13 03:21:39;;;;;;;2.30;2.20;;;19.60;99.90;;;20.05;84.80;101268.78;5070392;28;20049;-74
2023/07/13 03:24:08;;;;;;;2.55;2.45;;;19.70;99.90;;;20.07;85.02;101264.25;5054940;28;20056;-74
2023/07/13 03:26:37;;;;;;;2.40;2.30;;;19.70;99.90;;;20.07;84.82;101253.50;5055051;28;20048;-75
2023/07/13 03:29:05;;;;;;;2.58;2.47;;;19.70;99.90;;;20.08;84.80;101257.94;5053596;28;20482;-75
2023/07/13 03:31:37;;;;;;;2.30;2.20;;;19.70;99.90;;;20.08;85.35;101263.28;5066527;28;20417;-75
2023/07/13 03:34:05;;;;;;;2.50;2.40;;;19.70;99.90;;;20.11;85.18;101263.16;5054897;28;20091;-75
2023/07/13 03:36:37;;;;;;;2.67;2.58;;;19.70;99.90;;;19.94;85.22;101233.38;5054880;28;20041;-75
2023/07/13 03:39:10;;;;;;;3.92;2.55;;;19.70;99.90;;;19.54;85.25;101168.66;5062149;28;20049;-75
2023/07/13 03:41:58;;;;;;;2.58;2.47;;;19.80;99.90;;;20.17;85.42;101271.00;5051002;28;20045;-75
2023/07/13 03:44:28;;;;;;;2.63;2.53;;;19.80;99.90;;;20.13;85.47;101264.00;5053475;28;20095;-75
2023/07/13 03:46:58;;;;;;;2.72;2.63;;;19.80;99.90;;;20.15;85.38;101274.69;5053015;28;20056;-75
2023/07/13 03:49:26;;;;;;;3.10;3.00;;;19.80;99.90;;;20.18;85.43;101270.13;5053505;28;20049;-75
2023/07/13 03:51:56;;;;;;;2.42;2.33;;;19.80;99.90;;;20.21;85.38;101275.34;5054613;28;20036;-75
2023/07/13 03:54:25;;;;;;;2.67;2.58;;;19.80;99.90;;;20.23;85.23;101278.88;5050084;28;20103;-76
2023/07/13 03:56:53;;;;;;;2.60;2.50;;;19.80;99.90;;;20.22;85.12;101277.13;5055615;28;20052;-75
2023/07/13 03:59:22;;;;;;;2.50;2.40;;;19.80;99.90;;;20.21;85.00;101280.72;5057419;28;20040;-75
2023/07/13 04:01:52;;;;;;;2.55;2.45;;;19.80;99.90;;;20.20;84.89;101279.00;5056026;28;20272;-75
2023/07/13 04:04:20;;;;;;;2.28;2.17;;;19.80;99.90;;;20.26;84.90;101288.63;5057230;28;20049;-75
2023/07/13 04:06:49;;;;;;;2.25;2.15;;;19.90;99.90;;;20.24;84.74;101285.13;5055018;28;20052;-75
2023/07/13 04:09:19;;;;;;;2.47;2.38;;;19.90;99.90;;;20.28;85.06;101292.16;5054514;28;20071;-75
2023/07/13 04:11:47;;;;;;;2.72;2.63;;;19.90;99.90;;;20.32;84.84;101288.41;5053309;28;20508;-75
2023/07/13 04:14:15;;;;;;;5.38;3.92;;;19.90;99.90;;;20.28;84.90;101282.28;5053921;28;20068;-75
2023/07/13 04:16:45;;;;;;;2.50;2.40;;;19.90;99.90;;;20.26;84.86;101284.16;5049908;28;20052;-75
2023/07/13 04:19:14;;;;;;;2.60;2.50;;;19.90;99.90;;;20.37;84.93;101289.97;5049356;28;20049;-76
2023/07/13 04:21:43;;;;;;;2.85;2.75;;;20.00;99.90;;;20.41;84.90;101297.00;5053577;28;20060;-75
2023/07/13 04:24:11;;;;;;;2.13;2.03;;;20.10;99.90;;;20.46;84.59;101302.22;5050695;28;20048;-75
2023/07/13 04:26:43;;;;;;;2.58;2.47;;;20.10;99.90;;;20.49;84.43;101302.97;5053575;28;20045;-75
2023/07/13 04:29:12;;;;;;;2.50;2.40;;;20.10;99.90;;;20.48;84.34;101301.19;5053791;28;20097;-75
2023/07/13 04:31:40;;;;;;;2.40;2.30;;;20.10;99.90;;;20.54;84.03;101300.06;5053490;28;20055;-75
2023/07/13 04:34:09;;;;;;;2.33;2.22;;;20.20;99.90;;;20.54;83.61;101306.34;5060957;28;20045;-74
2023/07/13 04:36:38;;;;;;;2.72;2.63;;;20.20;99.90;;;20.55;83.11;101301.84;5053690;28;20068;-76
2023/07/13 04:39:07;;;;;;;2.78;2.67;;;20.20;99.90;;;20.57;82.44;101308.03;5049758;28;20048;-75
2023/07/13 04:41:35;;;;;;;2.30;2.20;;;20.30;99.90;;;20.52;81.77;101310.91;5052275;28;20080;-76
2023/07/13 04:44:05;;;;;;;2.70;2.60;;;20.20;99.90;;;20.55;81.31;101308.09;5053200;28;20077;-75
2023/07/13 04:46:34;;;;;;;2.50;2.40;;;20.20;99.90;;;20.65;80.97;101314.00;5053543;28;20091;-75
2023/07/13 04:49:03;;;;;;;2.60;2.50;;;20.30;99.90;;;20.63;80.65;101311.34;5053450;28;20047;-75
2023/07/13 04:51:32;;;;;;;4.20;4.00;;;20.30;99.90;;;20.68;80.35;101314.75;5053296;28;20068;-75
2023/07/13 04:54:00;;;;;;;2.80;2.70;;;20.30;99.90;;;20.72;79.95;101315.50;5051622;28;20139;-75
2023/07/13 04:56:30;;;;;;;3.38;3.17;;;20.30;99.90;;;20.76;79.62;101322.53;5053581;28;20128;-76
2023/07/13 04:58:58;;;;;;;2.83;2.72;;;20.40;99.90;;;20.69;79.63;101318.34;5053025;28;20049;-75
2023/07/13 05:01:28;;;;;;;2.53;2.42;;;20.30;99.90;;;20.70;79.58;101320.06;5049316;28;20049;-75
2023/07/13 05:03:59;;;;;;;2.80;2.70;;;20.30;99.90;;;20.77;79.35;101323.41;5053180;28;20052;-75
2023/07/13 05:06:28;;;;;;;2.97;2.88;;;20.30;99.90;;;20.83;79.27;101328.56;5053184;28;20091;-75
2023/07/13 05:08:56;;;;;;;2.60;2.50;;;20.40;99.90;;;20.88;78.95;101332.81;5053391;28;20120;-75
2023/07/13 05:11:25;;;;;;;2.70;2.60;;;20.50;99.90;;;20.85;78.94;101326.69;5050567;28;20076;-75
2023/07/13 05:13:54;;;;;;;2.42;2.33;;;20.40;99.90;;;20.89;78.96;101333.66;5053068;28;20060;-74
2023/07/13 05:16:22;;;;;;;2.45;2.35;;;20.50;99.90;;;20.87;78.69;101335.53;5053305;28;20052;-75
2023/07/13 05:18:52;;;;;;;2.55;2.45;;;20.50;99.90;;;20.92;78.75;101334.44;5052146;28;20048;-74
2023/07/13 05:21:20;;;;;;;2.33;2.22;;;20.50;99.90;;;20.98;78.50;101333.31;5048863;28;20391;-75
2023/07/13 05:23:49;;;;;;;2.70;2.60;;;20.50;99.90;;;21.03;78.32;101329.53;5052744;28;20044;-74
2023/07/13 05:26:17;;;;;;;2.42;2.33;;;20.60;99.90;;;21.06;77.60;101340.16;5052639;28;20051;-76
2023/07/13 05:28:46;;;;;;;2.75;2.65;;;20.60;99.90;;;20.98;76.05;101344.06;5051450;28;20055;-75
2023/07/13 05:31:15;;;;;;;2.45;2.35;;;20.60;99.90;;;21.04;75.84;101333.97;5049735;28;20049;-74
2023/07/13 05:33:43;;;;;;;2.88;2.78;;;20.70;99.90;;;20.98;75.61;101344.06;5068152;28;20048;-76
2023/07/13 05:36:13;;;;;;;2.65;2.55;;;20.60;99.90;;;21.02;75.12;101351.97;5052436;28;20049;-76
2023/07/13 05:38:42;;;;;;;2.85;2.75;;;20.60;99.90;;;21.12;75.06;101345.31;5052722;28;20504;-75
2023/07/13 05:41:10;;;;;;;2.65;2.55;;;20.70;99.90;;;21.22;74.76;101354.75;5053056;28;20458;-74
2023/07/13 05:43:39;;;;;;;2.55;2.45;;;20.80;99.90;;;21.22;74.71;101343.13;5047397;28;20048;-75
2023/07/13 05:46:08;;;;;;;6.82;3.47;;;20.90;99.90;;;21.23;74.77;101361.03;5048789;28;20095;-77
2023/07/13 05:48:36;;;;;;;2.70;2.60;;;20.90;99.90;;;21.28;74.67;101359.91;5052604;28;20053;-76
2023/07/13 05:51:05;;;;;;;2.58;2.47;;;21.00;99.90;;;21.29;74.96;101363.47;5052454;28;20045;-75
2023/07/13 05:53:35;;;;;;;3.13;2.92;;;21.00;99.90;;;21.24;75.48;101373.53;5052906;28;20069;-76
2023/07/13 05:56:04;;;;;;;;;;;20.90;99.90;;;21.22;75.86;101375.41;5052994;28;20056;-76
2023/07/13 05:58:32;;;;;;;3.10;2.90;;;20.90;99.90;;;21.23;75.46;101366.41;5051273;28;19964;-76
2023/07/13 06:01:03;;;;;;;2.60;2.50;;;20.90;99.90;;;21.18;75.39;101373.78;5052523;28;20044;-76
2023/07/13 06:03:33;;;;;;;3.15;3.05;;;20.90;99.90;;;21.26;74.92;101371.66;5051287;28;20136;-75
2023/07/13 06:06:01;;;;;;;2.65;2.55;;;20.90;99.90;;;21.15;75.11;101353.25;5067827;28;20049;-75
2023/07/13 06:08:30;;;;;;;2.28;2.17;;;20.90;99.90;;;21.23;74.31;101356.53;5052467;28;20052;-76
2023/07/13 06:11:05;;;;;;;2.60;2.50;;;21.00;99.90;;;21.41;73.89;101377.28;5052570;28;20052;-74
2023/07/13 06:13:34;;;;;;;3.65;3.17;;;21.10;99.90;;;21.42;73.20;101386.25;5052198;28;20053;-75
2023/07/13 06:16:05;;;;;;;3.42;2.88;;;21.10;99.90;;;21.41;73.09;101395.25;5051960;28;20048;-76
2023/07/13 06:18:35;;;;;;;2.55;2.45;;;21.10;99.90;;;21.45;72.77;101388.81;5052083;28;20048;-75
2023/07/13 06:21:08;;;;;;;3.20;3.00;;;21.10;99.90;;;21.32;73.10;101392.94;5048408;28;20075;-73
2023/07/13 06:23:37;;;;;;;2.80;2.70;;;21.10;99.90;;;21.57;73.13;101393.69;5050887;28;20088;-75
2023/07/13 06:26:08;;;;;;;2.78;2.67;;;21.20;99.90;;;21.59;72.81;101391.81;5051983;28;20037;-75
2023/07/13 06:28:39;;;;;;;3.00;2.83;;;21.30;99.90;;;21.62;73.32;101375.56;5052273;28;20041;-74
2023/07/13 06:31:10;;;;;;;3.13;2.92;;;21.40;99.90;;;21.82;72.99;101396.28;5053820;28;20045;-75
2023/07/13 06:33:39;;;;;;;2.28;2.17;;;21.40;99.90;;;21.79;72.75;101380.22;5055785;28;20432;-75
2023/07/13 06:36:09;;;;;;;2.35;2.25;;;21.50;99.90;;;21.93;71.44;101399.41;5050875;28;20496;-75
2023/07/13 06:38:38;;;;;;;3.47;3.27;;;21.60;99.90;;;22.09;70.92;101406.75;5055899;28;20380;-76
2023/07/13 06:41:09;;;;;;;2.65;2.55;;;21.70;99.90;;;21.87;71.16;101372.72;5055816;28;20630;-74
2023/07/13 06:43:38;;;;;;;2.78;2.60;;;21.70;99.90;;;22.11;70.78;101415.66;5055630;28;20049;-74
2023/07/13 06:46:07;;;;;;;2.50;2.40;;;21.70;99.90;;;22.10;71.00;101415.72;5055664;28;20084;-76
2023/07/13 06:48:36;;;;;;;2.58;2.47;;;21.70;99.90;;;22.02;70.78;101413.38;5055658;28;20128;-74
2023/07/13 06:51:05;;;;;;;2.78;2.67;;;21.60;99.90;;;21.50;70.96;101308.75;5055316;28;20040;-75
2023/07/13 06:53:33;;;;;;;2.15;2.05;;;21.70;99.90;;;22.22;71.24;101415.19;5054316;28;20053;-75
2023/07/13 06:56:02;;;;;;;2.80;2.60;;;21.80;99.90;;;22.21;70.24;101414.31;5051490;28;20053;-74
2023/07/13 06:58:32;;;;;;;2.50;2.40;;;21.80;99.90;;;22.26;69.95;101423.06;5055196;28;20037;-75
2023/07/13 07:01:00;;;;;;;2.70;2.60;;;21.90;99.90;;;22.16;69.68;101423.53;5055205;28;20041;-75
2023/07/13 07:03:29;;;;;;;2.60;2.50;;;21.80;99.90;;;22.18;69.49;101419.81;5054224;28;20049;-75
2023/07/13 07:06:02;;;;;;;2.80;2.70;;;21.80;99.90;;;22.18;69.75;101422.50;5052582;28;20053;-74
2023/07/13 07:08:30;;;;;;;2.53;2.42;;;21.80;99.90;;;22.09;69.54;101433.69;5055126;28;20453;-75
2023/07/13 07:10:59;;;;;;;2.30;2.20;;;21.70;99.90;;;22.05;68.94;101440.16;5054855;28;20041;-74
2023/07/13 07:13:29;;;;;;;2.50;2.40;;;21.70;99.90;;;22.02;68.95;101440.31;5054945;28;20053;-75
2023/07/13 07:16:00;;;;;;;2.17;2.08;;;21.70;99.90;;;22.08;69.36;101433.78;5051362;28;20450;-73
2023/07/13 07:18:28;;;;;;;2.83;2.72;;;21.70;99.90;;;22.15;69.82;101435.25;5070585;28;20053;-74
2023/07/13 07:20:57;;;;;;;2.60;2.50;;;21.80;99.90;;;22.17;69.01;101434.25;5054807;28;20041;-75
2023/07/13 07:23:25;;;;;;;4.50;4.10;;;21.80;99.90;;;22.14;68.55;101433.50;5054633;28;20056;-74
2023/07/13 07:25:53;;;;;;;2.58;2.47;;;21.80;99.90;;;22.19;69.25;101432.38;5052493;28;20160;-75
2023/07/13 07:28:22;;;;;;;2.65;2.55;;;21.80;99.90;;;22.24;69.83;101433.03;5054756;28;20091;-74
2023/07/13 07:30:56;;;;;;;2.90;2.70;;;21.90;99.90;;;22.21;69.44;101441.28;5054957;28;20106;-75
2023/07/13 07:33:29;;;;;;;2.55;2.45;;;21.90;99.90;;;22.28;69.46;101442.75;5050102;28;20045;-75
2023/07/13 07:35:57;;;;;;;2.80;2.70;;;21.90;99.90;;;22.23;69.33;101442.09;5053534;28;20131;-75
2023/07/13 07:38:29;;;;;;;2.40;2.30;;;21.80;99.90;;;22.33;69.41;101448.84;5054401;28;20072;-75
2023/07/13 07:40:57;;;;;;;2.65;2.55;;;21.90;99.90;;;22.29;69.30;101455.28;5054346;28;20041;-75
2023/07/13 07:43:29;;;;;;;2.15;2.05;;;21.90;99.90;;;22.23;68.89;101447.47;5053459;28;20041;-75
2023/07/13 07:45:57;;;;;;;3.03;2.85;;;21.90;99.90;;;22.18;68.58;101449.47;5053298;28;20045;-75
2023/07/13 07:48:29;;;;;;;4.10;3.80;;;21.80;99.90;;;22.24;67.30;101461.84;5051089;28;20446;-76
2023/07/13 07:50:58;;;;;;;2.40;2.30;;;21.80;99.90;;;22.27;66.88;101461.69;5050951;28;20523;-74
2023/07/13 07:53:26;;;;;;;2.28;2.17;;;21.80;99.90;;;22.44;66.42;101464.53;5054246;28;20553;-75
2023/07/13 07:55:55;;;;;;;2.47;2.38;;;22.00;99.90;;;22.53;65.97;101463.25;5054197;28;20049;-75
2023/07/13 07:58:26;;;;;;;2.88;2.78;;;22.10;99.90;;;22.55;66.12;101462.22;5054459;28;20041;-74
2023/07/13 08:01:05;;;;;;;2.42;2.33;;;22.10;99.90;;;22.64;66.39;101461.88;5054407;28;20083;-74
2023/07/13 08:03:38;;;;;;;3.28;2.67;;;22.20;99.90;;;22.76;66.67;101464.03;5050893;28;20041;-75
2023/07/13 08:06:09;;;;;;;3.42;2.72;;;22.30;99.90;;;22.80;66.52;101457.50;5053978;28;20041;-74
2023/07/13 08:08:57;;;;;;;2.60;2.50;;;22.40;99.90;;;22.91;66.23;101463.31;5050757;28;20045;-74
2023/07/13 08:11:26;;;;;;;2.60;2.50;;;22.50;99.90;;;23.04;66.65;101466.31;5054039;28;20394;-75
2023/07/13 08:13:57;;;;;;;2.83;2.72;;;22.60;99.90;;;23.21;64.99;101472.69;5053777;28;20037;-75
2023/07/13 08:16:26;;;;;;;2.50;2.40;;;22.80;99.90;;;23.20;64.75;101467.38;5054191;28;20044;-74
2023/07/13 08:18:56;;;;;;;2.10;2.00;;;22.80;99.90;;;23.38;65.29;101474.63;5054144;28;20057;-74
2023/07/13 08:21:25;;;;;;;2.40;2.30;;;23.00;99.90;;;23.37;64.53;101472.00;5052498;28;20044;-74
2023/07/13 08:23:53;;;;;;;2.17;2.08;;;23.10;99.90;;;23.29;64.14;101466.91;5053673;28;20041;-75
2023/07/13 08:26:22;;;;;;;2.35;2.25;;;23.00;99.90;;;23.22;64.32;101476.28;5053485;28;20138;-74
2023/07/13 08:28:50;;;;;;;2.22;2.13;;;22.90;99.90;;;23.19;64.61;101469.19;5053956;28;20056;-74
2023/07/13 08:31:19;;;;;;;2.35;2.25;;;22.90;99.90;;;23.21;64.53;101466.41;5053429;28;20041;-75
2023/07/13 08:33:47;;;;;;;2.20;2.10;;;22.90;99.90;;;23.21;64.52;101472.69;5053650;28;20049;-75
2023/07/13 08:36:18;;;;;;;2.00;1.90;;;22.90;99.90;;;23.11;64.31;101482.16;5053351;28;20068;-74
2023/07/13 08:38:46;;;;;;;4.57;4.25;;;22.80;99.90;;;23.08;65.33;101487.72;5053627;28;20037;-75
2023/07/13 08:41:18;;;;;;;4.65;3.85;;;22.80;99.90;;;23.02;64.94;101489.78;5053250;28;20067;-75
2023/07/13 08:43:50;;;;;;;2.65;2.55;;;22.70;99.90;;;22.84;63.85;101464.53;5068815;28;20053;-74
2023/07/13 08:46:25;;;;;;;2.85;2.75;;;22.70;99.90;;;22.60;65.45;101483.63;5049874;28;20455;-74
2023/07/13 08:49:00;;;;;;;2.55;2.45;;;22.30;99.90;;;22.75;65.52;101480.25;5053273;28;20045;-74
2023/07/13 08:51:44;;;;;;;3.08;2.78;;;22.30;99.90;;;22.84;64.73;101488.81;5053218;28;20041;-74
2023/07/13 08:54:22;;;;;;;2.33;2.22;;;22.40;99.90;;;23.01;64.92;101488.06;5050568;28;20049;-73
2023/07/13 08:56:53;;;;;;;2.20;2.10;;;22.60;99.90;;;22.98;65.02;101486.38;5052015;28;20040;-74
2023/07/13 08:59:27;;;;;;;2.10;2.00;;;22.70;99.90;;;22.97;63.85;101483.75;5048171;28;20049;-73
2023/07/13 09:02:22;;;;;;;2.47;2.38;;;22.70;99.90;;;22.80;64.60;101464.75;5050734;28;20045;-74
2023/07/13 09:04:55;;;;;;;2.65;2.55;;;22.70;99.90;;;22.82;64.69;101488.00;5050025;28;20409;-74
2023/07/13 09:07:40;;;;;;;4.43;4.05;;;22.50;99.90;;;22.88;63.92;101492.28;5053170;28;20463;-75
2023/07/13 09:10:16;;;;;;;2.15;2.05;;;22.60;99.90;;;22.94;63.56;101491.97;5049912;28;20056;-74
2023/07/13 09:13:00;;;;;;;2.15;2.05;;;22.60;99.90;;;22.52;63.69;101415.63;5052751;28;20049;-74
2023/07/13 09:15:33;;;;;;;6.15;3.00;;;22.70;99.90;;;22.79;63.87;101482.75;5049920;28;20075;-75
2023/07/13 09:18:08;;;;;;;2.60;2.50;;;22.60;99.90;;;22.85;64.63;101481.59;5052749;28;20059;-75
2023/07/13 09:20:43;;;;;;;2.28;2.17;;;22.50;99.90;;;22.72;64.80;101497.47;5052714;28;20060;-74
2023/07/13 09:23:18;;;;;;;2.40;2.30;;;22.30;99.90;;;22.71;65.21;101492.13;5049488;28;20081;-76
2023/07/13 09:25:50;;;;;;;2.30;2.20;;;22.30;99.90;;;22.40;65.65;101477.28;5052955;28;20044;-74
2023/07/13 09:28:23;;;;;;;2.30;2.20;;;22.10;99.90;;;22.43;67.17;101496.00;5052641;28;20112;-76
2023/07/13 09:30:58;;;;;;;2.58;2.47;;;22.00;99.90;;;22.64;67.40;101496.06;5053141;28;20056;-75
2023/07/13 09:33:29;;;;;;;2.63;2.53;;;22.20;99.90;;;22.90;66.36;101506.56;5049241;28;20041;-74
2023/07/13 09:35:58;;;;;;;2.13;2.03;;;22.40;99.90;;;23.03;65.08;101513.16;5052543;28;20052;-74
2023/07/13 09:38:31;;;;;;;10.95;5.82;;;22.60;99.90;;;23.14;64.66;101514.41;5052423;28;20041;-74
2023/07/13 09:41:17;;;;;;;2.80;2.70;;;22.80;99.90;;;23.18;63.98;101510.63;5052560;28;20048;-74
2023/07/13 09:44:09;;;;;;;2.80;2.70;;;22.80;99.90;;;23.12;64.32;101505.50;5050146;28;20106;-75
2023/07/13 09:46:38;;;;;;;4.45;3.35;;;22.80;99.90;;;23.22;63.85;101477.16;5049641;28;20103;-74
2023/07/13 09:49:06;;;;;;;10.85;4.78;;;23.00;99.90;;;22.89;63.01;101424.72;5052055;28;20124;-75
2023/07/13 09:51:35;;;;;;;2.35;2.25;;;23.10;99.90;;;23.69;63.10;101537.03;5052140;28;20139;-75
2023/07/13 09:54:10;;;;;;;2.53;2.42;;;23.30;99.90;;;23.93;62.08;101529.56;5052253;28;20041;-75
2023/07/13 09:56:38;;;;;;;4.97;4.60;;;23.50;99.90;;;24.16;62.48;101532.94;5052588;28;20551;-75
2023/07/13 09:59:21;;;;;;;2.25;2.15;;;23.80;99.90;;;24.37;61.87;101536.38;5052270;28;20072;-75
2023/07/13 10:01:49;;;;;;;3.78;2.92;;;24.00;99.90;;;24.08;59.73;101543.25;5050278;28;20049;-74
2023/07/13 10:04:20;;;;;;;4.20;3.22;;;23.80;99.90;;;24.02;60.06;101553.50;5067840;28;20088;-74
2023/07/13 10:06:49;;;;;;;5.30;2.28;;;23.70;99.90;;;24.14;60.23;101533.94;5055137;28;20044;-74
2023/07/13 10:09:25;;;;;;;2.63;2.45;;;23.80;99.90;;;24.03;60.61;101544.44;5052632;28;20495;-75
2023/07/13 10:11:54;;;;;;;2.25;2.15;;;23.70;99.90;;;24.02;60.35;101557.06;5056127;28;20049;-74
2023/07/13 10:14:25;;;;;;;2.30;2.20;;;23.70;99.90;;;24.18;60.78;101549.06;5056109;28;20052;-74
2023/07/13 10:17:02;;;;;;;2.30;2.20;;;23.80;99.90;;;23.95;59.97;101511.44;5056192;28;20071;-74
2023/07/13 10:19:33;;;;;;;2.90;2.80;;;23.80;99.90;;;24.48;60.34;101560.19;5052423;28;20053;-73
2023/07/13 10:22:11;;;;;;;2.97;2.78;;;24.10;99.90;;;24.40;59.54;101562.41;5055674;28;20486;-74
2023/07/13 10:24:42;;;;;;;2.35;2.25;;;24.10;99.90;;;24.30;58.61;101558.41;5055909;28;20761;-74
2023/07/13 10:27:17;;;;;;;2.10;2.00;;;23.90;99.90;;;24.12;59.64;101552.94;5055647;28;20123;-74